createdAt,value
2023-04-23T00:02:06.410Z,55.77
2023-04-23T00:05:09.842Z,55.95
2023-04-23T00:08:12.707Z,56.26
2023-04-23T00:11:15.413Z,56.20
2023-04-23T00:14:18.100Z,55.61
2023-04-23T00:17:20.942Z,54.68
2023-04-23T00:20:23.326Z,55.13
2023-04-23T00:23:25.844Z,55.53
2023-04-23T00:26:28.206Z,55.09
2023-04-23T00:29:30.554Z,55.38
2023-04-23T00:32:33.028Z,54.52
2023-04-23T00:35:36.201Z,54.77
2023-04-23T00:38:38.674Z,54.69
2023-04-23T00:41:41.745Z,52.94
2023-04-23T00:44:44.201Z,54.89
2023-04-23T00:47:47.146Z,54.77
2023-04-23T00:50:49.503Z,54.70
2023-04-23T00:53:52.005Z,55.13
2023-04-23T00:56:55.129Z,55.41
2023-04-23T00:59:58.493Z,55.71
2023-04-23T01:03:01.495Z,55.79
2023-04-23T01:06:04.446Z,56.20
2023-04-23T01:09:07.764Z,55.92
2023-04-23T01:12:10.131Z,55.77
2023-04-23T01:15:12.493Z,56.16
2023-04-23T01:18:15.557Z,56.61
2023-04-23T01:21:17.990Z,56.80
2023-04-23T01:24:20.367Z,56.40
2023-04-23T01:27:25.012Z,56.72
2023-04-23T01:30:27.713Z,57.00
2023-04-23T01:33:30.138Z,57.53
2023-04-23T01:36:33.424Z,57.47
2023-04-23T01:39:37.142Z,57.62
2023-04-23T01:42:39.527Z,58.09
2023-04-23T01:45:42.084Z,57.98
2023-04-23T01:48:44.457Z,57.85
2023-04-23T01:51:47.345Z,58.18
2023-04-23T01:54:49.784Z,58.10
2023-04-23T01:57:52.171Z,57.57
2023-04-23T02:00:54.497Z,57.85
2023-04-23T02:03:59.127Z,58.04
2023-04-23T02:07:01.944Z,58.83
2023-04-23T02:10:04.594Z,58.29
2023-04-23T02:13:07.218Z,58.87
2023-04-23T02:16:09.677Z,58.61
2023-04-23T02:19:14.091Z,58.68
2023-04-23T02:22:18.413Z,59.17
2023-04-23T02:25:22.103Z,59.31
2023-04-23T02:28:24.488Z,59.13
2023-04-23T02:31:26.939Z,59.39
2023-04-23T02:34:30.641Z,60.14
2023-04-23T02:37:33.386Z,59.89
2023-04-23T02:40:36.459Z,60.33
2023-04-23T02:43:38.848Z,60.61
2023-04-23T02:46:41.184Z,60.41
2023-04-23T02:49:43.560Z,60.52
2023-04-23T02:52:46.405Z,60.75
2023-04-23T02:55:48.974Z,60.17
2023-04-23T02:58:51.429Z,60.04
2023-04-23T03:01:53.819Z,59.99
2023-04-23T03:04:56.860Z,60.33
2023-04-23T03:07:59.234Z,60.26
2023-04-23T03:11:01.814Z,60.25
2023-04-23T03:14:04.260Z,60.28
2023-04-23T03:17:06.708Z,60.23
2023-04-23T03:20:11.655Z,59.76
2023-04-23T03:23:14.924Z,59.94
2023-04-23T03:26:17.318Z,59.72
2023-04-23T03:29:19.645Z,58.98
2023-04-23T03:32:22.067Z,59.19
2023-04-23T03:35:25.104Z,59.28
2023-04-23T03:38:29.622Z,59.13
2023-04-23T03:41:33.818Z,59.24
2023-04-23T03:44:37.501Z,59.19
2023-04-23T03:47:40.488Z,59.41
2023-04-23T03:50:43.214Z,59.84
2023-04-23T03:54:03.084Z,60.28
2023-04-23T03:57:17.165Z,59.90
2023-04-23T04:00:51.860Z,59.85
2023-04-23T04:03:54.350Z,59.30
2023-04-23T04:07:00.480Z,59.99
2023-04-23T04:10:05.348Z,60.03
2023-04-23T04:13:07.788Z,60.59
2023-04-23T04:16:10.877Z,60.80
2023-04-23T04:19:13.358Z,60.52
2023-04-23T04:22:16.250Z,60.85
2023-04-23T04:25:18.645Z,61.02
2023-04-23T04:28:20.994Z,60.77
2023-04-23T04:31:23.443Z,60.69
2023-04-23T04:34:26.298Z,60.76
2023-04-23T04:37:28.665Z,61.00
2023-04-23T04:40:31.565Z,61.20
2023-04-23T04:43:34.557Z,60.88
2023-04-23T04:46:40.385Z,61.27
2023-04-23T04:50:46.984Z,61.41
2023-04-23T04:53:49.820Z,61.41
2023-04-23T04:56:52.196Z,61.87
2023-04-23T04:59:55.285Z,61.85
2023-04-23T05:02:57.995Z,61.47
2023-04-23T05:06:00.509Z,61.82
2023-04-23T05:09:02.844Z,61.84
2023-04-23T05:12:07.459Z,62.05
2023-04-23T05:15:13.373Z,62.15
2023-04-23T05:18:15.751Z,61.78
2023-04-23T05:21:19.565Z,61.26
2023-04-23T05:24:22.025Z,60.12
2023-04-23T05:27:24.388Z,59.59
2023-04-23T05:30:26.864Z,58.47
2023-04-23T05:33:33.460Z,55.96
2023-04-23T05:36:42.037Z,55.22
2023-04-23T05:39:44.594Z,54.69
2023-04-23T05:42:46.947Z,54.40
2023-04-23T05:45:49.353Z,53.53
2023-04-23T05:48:51.702Z,53.12
2023-04-23T05:51:54.140Z,52.77
2023-04-23T05:54:56.510Z,52.71
2023-04-23T05:57:58.949Z,53.35
2023-04-23T06:01:01.362Z,53.17
2023-04-23T06:04:04.027Z,52.70
2023-04-23T06:07:06.704Z,52.14
2023-04-23T06:10:09.328Z,52.50
2023-04-23T06:13:11.701Z,52.02
2023-04-23T06:16:14.054Z,52.34
2023-04-23T06:19:16.899Z,51.88
2023-04-23T06:22:19.343Z,52.16
2023-04-23T06:25:21.761Z,51.29
2023-04-23T06:28:24.349Z,51.20
2023-04-23T06:31:46.674Z,51.01
2023-04-23T06:35:00.371Z,49.67
2023-04-23T06:38:04.165Z,50.79
2023-04-23T06:41:06.717Z,50.49
2023-04-23T06:44:09.150Z,50.06
2023-04-23T06:47:15.386Z,49.95
2023-04-23T06:50:17.699Z,50.31
2023-04-23T06:53:20.053Z,49.94
2023-04-23T06:56:22.360Z,50.21
2023-04-23T06:59:24.694Z,47.18
2023-04-23T07:02:30.292Z,47.85
2023-04-23T07:05:32.923Z,48.19
2023-04-23T07:08:35.347Z,49.33
2023-04-23T07:11:37.710Z,49.43
2023-04-23T07:14:40.206Z,49.14
2023-04-23T07:17:42.704Z,49.07
2023-04-23T07:20:45.044Z,48.59
2023-04-23T07:23:47.380Z,46.16
2023-04-23T07:26:49.830Z,46.50
2023-04-23T07:29:52.218Z,46.28
2023-04-23T07:32:55.551Z,44.01
2023-04-23T07:35:58.248Z,42.61
2023-04-23T07:39:00.704Z,44.60
2023-04-23T07:42:03.156Z,43.29
2023-04-23T07:45:06.034Z,43.08
2023-04-23T07:48:08.425Z,43.65
2023-04-23T07:51:10.772Z,43.37
2023-04-23T07:54:13.122Z,42.26
2023-04-23T07:57:16.382Z,43.50
2023-04-23T08:00:18.850Z,42.13
2023-04-23T08:03:21.910Z,42.29
2023-04-23T08:06:24.636Z,40.88
2023-04-23T08:09:27.032Z,39.33
2023-04-23T08:12:30.198Z,37.41
2023-04-23T08:15:32.664Z,37.20
2023-04-23T08:18:35.387Z,37.23
2023-04-23T08:21:37.809Z,37.44
2023-04-23T08:24:40.905Z,36.03
2023-04-23T08:27:43.328Z,35.64
2023-04-23T08:30:46.269Z,35.38
2023-04-23T08:33:48.670Z,34.69
2023-04-23T08:36:51.052Z,35.41
2023-04-23T08:39:53.404Z,36.34
2023-04-23T08:43:06.377Z,35.36
2023-04-23T08:46:08.689Z,35.75
2023-04-23T08:49:16.651Z,35.02
2023-04-23T08:52:22.338Z,35.68
2023-04-23T08:55:25.503Z,34.85
2023-04-23T08:58:28.281Z,32.89
2023-04-23T09:01:30.780Z,33.79
2023-04-23T09:04:33.993Z,32.84
2023-04-23T09:07:36.521Z,33.38
2023-04-23T09:10:41.537Z,34.09
2023-04-23T09:13:43.879Z,34.52
2023-04-23T09:16:46.404Z,34.14
2023-04-23T09:19:49.158Z,33.22
2023-04-23T09:22:52.759Z,32.32
2023-04-23T09:25:56.725Z,31.20
2023-04-23T09:29:00.465Z,32.44
2023-04-23T09:32:09.140Z,28.26
2023-04-23T09:35:13.934Z,26.05
2023-04-23T09:38:16.235Z,26.69
2023-04-23T09:41:38.064Z,27.45
2023-04-23T09:44:42.276Z,27.11
2023-04-23T09:47:52.253Z,27.34
2023-04-23T09:50:54.799Z,26.66
2023-04-23T09:53:57.663Z,23.97
2023-04-23T09:57:02.225Z,25.13
2023-04-23T10:00:21.300Z,24.73
2023-04-23T10:03:27.479Z,24.11
2023-04-23T10:06:42.392Z,20.90
2023-04-23T10:09:52.186Z,21.36
2023-04-23T10:12:57.348Z,20.83
2023-04-23T10:16:10.262Z,22.42
2023-04-23T10:19:22.921Z,20.94
2023-04-23T10:22:25.372Z,23.80
2023-04-23T10:25:27.744Z,22.76
2023-04-23T10:28:31.998Z,22.42
2023-04-23T10:31:34.479Z,21.72
2023-04-23T10:34:36.870Z,20.18
2023-04-23T10:37:39.334Z,21.48
2023-04-23T10:40:41.708Z,21.43
2023-04-23T10:43:44.013Z,20.97
2023-04-23T10:47:00.774Z,19.83
2023-04-23T10:50:27.985Z,19.01
2023-04-23T10:53:31.682Z,19.10
2023-04-23T10:56:34.118Z,20.07
2023-04-23T10:59:39.674Z,19.42
2023-04-23T11:02:45.415Z,19.15
2023-04-23T11:05:47.902Z,19.75
2023-04-23T11:08:54.083Z,18.06
2023-04-23T11:11:58.103Z,19.63
2023-04-23T11:15:00.533Z,18.99
2023-04-23T11:18:03.123Z,18.35
2023-04-23T11:21:05.683Z,18.04
2023-04-23T11:24:08.197Z,18.31
2023-04-23T11:27:11.196Z,18.64
2023-04-23T11:30:16.395Z,18.53
2023-04-23T11:33:18.750Z,18.42
2023-04-23T11:36:21.119Z,18.33
2023-04-23T11:39:27.066Z,19.02
2023-04-23T11:42:29.531Z,18.59
2023-04-23T11:45:31.840Z,18.44
2023-04-23T11:48:35.385Z,18.49
2023-04-23T11:51:42.248Z,18.95
2023-04-23T11:54:44.851Z,18.69
2023-04-23T11:57:48.895Z,20.73
2023-04-23T12:00:58.232Z,18.27
2023-04-23T12:04:01.142Z,17.18
2023-04-23T12:07:10.169Z,17.10
2023-04-23T12:10:22.154Z,16.99
2023-04-23T12:13:28.094Z,16.40
2023-04-23T12:16:43.053Z,16.43
2023-04-23T12:19:45.410Z,16.46
2023-04-23T12:22:48.114Z,17.59
2023-04-23T12:25:50.477Z,16.67
2023-04-23T12:28:56.865Z,16.82
2023-04-23T12:32:00.075Z,17.91
2023-04-23T12:35:06.123Z,16.69
2023-04-23T12:38:08.505Z,15.85
2023-04-23T12:41:10.802Z,17.14
2023-04-23T12:44:13.119Z,16.53
2023-04-23T12:47:15.588Z,16.15
2023-04-23T12:50:18.007Z,16.15
2023-04-23T12:53:20.701Z,16.92
2023-04-23T12:56:23.126Z,16.80
2023-04-23T12:59:26.289Z,16.88
2023-04-23T13:02:29.057Z,17.31
2023-04-23T13:05:31.560Z,15.91
2023-04-23T13:08:34.292Z,16.79
2023-04-23T13:11:37.998Z,17.17
2023-04-23T13:14:40.409Z,15.56
2023-04-23T13:17:42.863Z,17.07
2023-04-23T13:20:45.533Z,16.84
2023-04-23T13:23:48.060Z,16.61
2023-04-23T13:26:50.465Z,16.99
2023-04-23T13:29:52.790Z,18.39
2023-04-23T13:32:56.953Z,17.67
2023-04-23T13:36:00.933Z,17.74
2023-04-23T13:39:03.320Z,17.17
2023-04-23T13:42:09.440Z,16.75
2023-04-23T13:45:14.131Z,17.08
2023-04-23T13:48:18.527Z,16.65
2023-04-23T13:51:34.089Z,16.38
2023-04-23T13:54:38.273Z,16.57
2023-04-23T13:57:40.608Z,16.37
2023-04-23T14:00:43.129Z,16.39
2023-04-23T14:03:45.483Z,16.50
2023-04-23T14:06:47.856Z,16.63
2023-04-23T14:09:52.861Z,16.57
2023-04-23T14:12:55.552Z,17.21
2023-04-23T14:15:57.963Z,17.59
2023-04-23T14:19:00.399Z,17.28
2023-04-23T14:22:02.989Z,17.81
2023-04-23T14:25:13.215Z,18.00
2023-04-23T14:28:27.610Z,17.65
2023-04-23T14:31:33.992Z,18.69
2023-04-23T14:34:36.464Z,18.37
2023-04-23T14:37:38.840Z,18.97
2023-04-23T14:40:41.263Z,19.25
2023-04-23T14:43:43.784Z,18.49
2023-04-23T14:46:46.394Z,18.44
2023-04-23T14:49:48.860Z,18.30
2023-04-23T14:52:52.211Z,17.66
2023-04-23T14:55:55.084Z,18.46
2023-04-23T14:58:57.438Z,19.75
2023-04-23T15:02:00.758Z,19.31
2023-04-23T15:05:03.305Z,18.77
2023-04-23T15:08:05.944Z,19.33
2023-04-23T15:11:13.388Z,18.88
2023-04-23T15:14:25.409Z,18.85
2023-04-23T15:17:27.820Z,18.97
2023-04-23T15:20:30.215Z,20.45
2023-04-23T15:23:32.670Z,20.74
2023-04-23T15:26:35.076Z,19.65
2023-04-23T15:29:37.512Z,19.89
2023-04-23T15:32:39.887Z,20.64
2023-04-23T15:35:42.316Z,19.99
2023-04-23T15:38:44.697Z,19.30
2023-04-23T15:41:47.037Z,20.02
2023-04-23T15:44:50.546Z,20.64
2023-04-23T15:47:52.925Z,20.68
2023-04-23T15:50:55.342Z,20.91
2023-04-23T15:53:57.767Z,20.47
2023-04-23T15:57:01.734Z,21.04
2023-04-23T16:00:04.317Z,21.49
2023-04-23T16:03:15.241Z,22.12
2023-04-23T16:06:17.822Z,21.76
2023-04-23T16:09:20.132Z,21.78
2023-04-23T16:12:22.451Z,21.99
2023-04-23T16:15:25.633Z,22.09
2023-04-23T16:18:27.952Z,22.71
2023-04-23T16:21:32.204Z,22.96
2023-04-23T16:24:34.694Z,23.48
2023-04-23T16:27:37.253Z,23.58
2023-04-23T16:30:39.868Z,23.70
2023-04-23T16:33:42.257Z,23.89
2023-04-23T16:36:44.622Z,24.73
2023-04-23T16:39:46.962Z,24.60
2023-04-23T16:42:49.466Z,24.72
2023-04-23T16:45:51.836Z,25.86
2023-04-23T16:48:54.255Z,26.35
2023-04-23T16:51:56.652Z,26.52
2023-04-23T16:54:59.040Z,26.57
2023-04-23T16:58:01.746Z,26.33
2023-04-23T17:01:04.189Z,26.62
2023-04-23T17:04:06.870Z,26.95
2023-04-23T17:07:09.410Z,27.55
2023-04-23T17:10:11.902Z,29.63
2023-04-23T17:13:14.263Z,29.42
2023-04-23T17:16:16.750Z,29.42
2023-04-23T17:19:19.109Z,29.57
2023-04-23T17:22:21.462Z,29.75
2023-04-23T17:25:23.786Z,30.28
2023-04-23T17:28:26.208Z,30.47
2023-04-23T17:31:29.028Z,30.62
2023-04-23T17:34:31.459Z,31.14
2023-04-23T17:37:34.299Z,31.69
2023-04-23T17:40:37.412Z,32.10
2023-04-23T17:43:41.139Z,32.45
2023-04-23T17:46:43.439Z,32.62
2023-04-23T17:49:45.763Z,32.92
2023-04-23T17:52:48.145Z,32.93
2023-04-23T17:55:50.497Z,33.10
2023-04-23T17:58:52.819Z,33.39
2023-04-23T18:01:55.315Z,33.57
2023-04-23T18:04:59.410Z,34.02
2023-04-23T18:08:02.280Z,33.47
2023-04-23T18:11:07.082Z,34.09
2023-04-23T18:14:09.648Z,33.89
2023-04-23T18:17:14.084Z,33.61
2023-04-23T18:20:16.499Z,33.83
2023-04-23T18:23:20.799Z,34.82
2023-04-23T18:26:24.050Z,33.99
2023-04-23T18:29:29.411Z,34.22
2023-04-23T18:32:40.079Z,34.59
2023-04-23T18:35:43.690Z,35.20
2023-04-23T18:38:46.169Z,35.17
2023-04-23T18:41:49.170Z,36.33
2023-04-23T18:44:51.752Z,36.35
2023-04-23T18:47:58.274Z,36.14
2023-04-23T18:51:04.844Z,36.51
2023-04-23T18:54:07.233Z,36.49
2023-04-23T18:57:09.798Z,36.09
2023-04-23T19:00:12.838Z,35.97
2023-04-23T19:03:25.806Z,36.33
2023-04-23T19:06:29.416Z,36.24
2023-04-23T19:09:31.769Z,36.41
2023-04-23T19:12:34.173Z,35.95
2023-04-23T19:15:36.652Z,36.18
2023-04-23T19:18:39.027Z,36.38
2023-04-23T19:21:41.422Z,36.53
2023-04-23T19:24:43.722Z,37.42
2023-04-23T19:27:46.063Z,36.78
2023-04-23T19:30:48.410Z,37.35
2023-04-23T19:33:50.877Z,37.86
2023-04-23T19:36:53.278Z,38.98
2023-04-23T19:39:55.770Z,38.05
2023-04-23T19:42:58.141Z,37.97
2023-04-23T19:46:00.554Z,38.77
2023-04-23T19:49:02.974Z,38.57
2023-04-23T19:52:05.336Z,37.98
2023-04-23T19:55:08.142Z,38.47
2023-04-23T19:58:10.501Z,38.79
2023-04-23T20:01:13.139Z,39.09
2023-04-23T20:04:16.144Z,39.64
2023-04-23T20:07:18.637Z,39.29
2023-04-23T20:10:21.032Z,40.02
2023-04-23T20:13:24.001Z,39.24
2023-04-23T20:16:26.490Z,39.28
2023-04-23T20:19:31.001Z,39.18
2023-04-23T20:22:34.168Z,39.26
2023-04-23T20:25:43.320Z,39.89
2023-04-23T20:28:47.424Z,41.17
2023-04-23T20:31:49.938Z,41.14
2023-04-23T20:34:52.723Z,40.87
2023-04-23T20:37:55.592Z,40.71
2023-04-23T20:41:02.720Z,40.67
2023-04-23T20:44:05.326Z,39.77
2023-04-23T20:47:08.572Z,40.22
2023-04-23T20:50:11.389Z,39.99
2023-04-23T20:53:14.359Z,39.73
2023-04-23T20:56:18.076Z,40.82
2023-04-23T20:59:21.848Z,42.22
2023-04-23T21:02:24.676Z,42.43
2023-04-23T21:05:27.198Z,42.96
2023-04-23T21:08:30.201Z,42.68
2023-04-23T21:11:32.558Z,41.69
2023-04-23T21:14:34.944Z,42.55
2023-04-23T21:17:37.394Z,42.86
2023-04-23T21:20:39.744Z,43.40
2023-04-23T21:23:42.064Z,43.56
2023-04-23T21:26:44.457Z,43.09
2023-04-23T21:29:46.996Z,43.28
2023-04-23T21:32:52.146Z,43.56
2023-04-23T21:35:54.698Z,44.02
2023-04-23T21:38:57.079Z,44.55
2023-04-23T21:41:59.438Z,45.28
2023-04-23T21:45:02.061Z,45.96
2023-04-23T21:48:04.745Z,45.71
2023-04-23T21:51:07.905Z,45.22
2023-04-23T21:54:10.296Z,44.67
2023-04-23T21:57:12.648Z,45.35
2023-04-23T22:00:16.201Z,46.52
2023-04-23T22:03:27.675Z,47.75
2023-04-23T22:06:41.293Z,47.58
2023-04-23T22:09:43.982Z,47.47
2023-04-23T22:12:46.859Z,47.75
2023-04-23T22:15:49.246Z,47.69
2023-04-23T22:18:51.585Z,47.84
2023-04-23T22:21:57.422Z,49.13
2023-04-23T22:25:00.350Z,49.42
2023-04-23T22:28:03.638Z,49.49
2023-04-23T22:31:05.969Z,49.04
2023-04-23T22:34:08.310Z,49.02
2023-04-23T22:37:10.659Z,48.75
2023-04-23T22:40:13.023Z,48.88
2023-04-23T22:43:15.417Z,48.52
2023-04-23T22:46:17.811Z,48.67
2023-04-23T22:49:20.200Z,48.80
2023-04-23T22:52:22.518Z,48.84
2023-04-23T22:55:24.914Z,49.62
2023-04-23T22:58:27.229Z,49.33
2023-04-23T23:01:29.611Z,49.82
2023-04-23T23:04:32.289Z,50.71
2023-04-23T23:07:34.737Z,50.87
2023-04-23T23:10:37.069Z,51.68
2023-04-23T23:13:40.660Z,51.69
2023-04-23T23:16:43.016Z,51.55
2023-04-23T23:19:45.516Z,51.39
2023-04-23T23:22:47.961Z,51.89
2023-04-23T23:25:50.327Z,52.07
2023-04-23T23:28:52.708Z,51.79
2023-04-23T23:31:57.193Z,52.45
2023-04-23T23:35:00.317Z,52.07
2023-04-23T23:38:02.718Z,52.16
2023-04-23T23:41:05.107Z,52.02
2023-04-23T23:44:07.491Z,52.10
2023-04-23T23:47:09.814Z,52.21
2023-04-23T23:50:12.164Z,52.27
2023-04-23T23:53:14.480Z,52.30
2023-04-23T23:56:16.835Z,52.13
2023-04-23T23:59:19.164Z,52.32
